Time;durP1;ratioP1;P1;durP2;ratioP2;P2;SDS_P1;SDS_P2;PMS_P1;PMS_P2;Temp;Humidity;BMP_temperature;BMP_pressure;BME280_temperature;BME280_humidity;BME280_pressure;Samples;Min_cycle;Max_cycle;Signal;HPM_P1;HPM_P2
2022/08/19 00:01:16;;;;;;;;;;;;;;;27.29;38.90;99139.44;3121613;28;19925;-65
2022/08/19 00:02:48;;;;;;;;;;;;;;;27.29;38.74;99143.94;3121508;28;19936;-65
2022/08/19 00:04:19;;;;;;;;;;;;;;;27.29;39.08;99144.78;3121601;28;19951;-65
2022/08/19 00:05:52;;;;;;;;;;;;;;;27.24;38.95;99141.84;3121662;28;19937;-65
2022/08/19 00:07:24;;;;;;;;;;;;;;;27.21;38.95;99147.56;3120539;28;19925;-65
2022/08/19 00:08:56;;;;;;;;;;;;;;;27.16;39.24;99144.69;3121740;28;19929;-65
2022/08/19 00:10:28;;;;;;;;;;;;;;;27.12;39.15;99143.34;3117999;28;20317;-65
2022/08/19 00:11:59;;;;;;;;;;;;;;;27.08;39.22;99145.59;3113076;28;19982;-65
2022/08/19 00:13:31;;;;;;;;;;;;;;;27.07;39.00;99145.81;3121445;28;19925;-65
2022/08/19 00:15:02;;;;;;;;;;;;;;;27.06;39.58;99154.81;3121308;28;19937;-66
2022/08/19 00:16:34;;;;;;;;;;;;;;;26.98;39.81;99142.44;3121451;28;19925;-66
2022/08/19 00:18:06;;;;;;;;;;;;;;;26.95;39.88;99142.81;3121285;28;19929;-65
2022/08/19 00:19:38;;;;;;;;;;;;;;;26.94;39.74;99147.31;3121149;28;19936;-66
2022/08/19 00:21:10;;;;;;;;;;;;;;;26.92;39.91;99144.00;3121415;28;19936;-66
2022/08/19 00:22:41;;;;;;;;;;;;;;;26.89;40.11;99143.56;3121111;28;20141;-65
2022/08/19 00:24:14;;;;;;;;;;;;;;;26.82;40.89;99140.00;3121183;28;20329;-65
2022/08/19 00:25:46;;;;;;;;;;;;;;;26.79;40.51;99138.53;3121106;28;19998;-66
2022/08/19 00:27:17;;;;;;;;;;;;;;;26.77;40.66;99133.38;3129714;28;19925;-65
2022/08/19 00:28:49;;;;;;;;;;;;;;;26.69;41.36;99138.03;3119839;28;19940;-65
2022/08/19 00:30:20;;;;;;;;;;;;;;;26.65;41.51;99137.56;3120088;28;19940;-65
2022/08/19 00:31:55;;;;;;;;;;;;;;;26.60;41.45;99141.81;3121511;28;19929;-65
2022/08/19 00:33:27;;;;;;;;;;;;;;;26.59;41.35;99141.00;3120854;28;19924;-66
2022/08/19 00:34:58;;;;;;;;;;;;;;;26.61;41.11;99144.28;3110438;28;19925;-65
2022/08/19 00:36:32;;;;;;;;;;;;;;;26.61;41.20;99138.13;3118564;28;19936;-66
2022/08/19 00:38:06;;;;;;;;;;;;;;;26.60;41.25;99133.81;3121161;28;20391;-66
2022/08/19 00:39:37;;;;;;;;;;;;;;;26.59;40.72;99124.97;3121060;28;19929;-65
2022/08/19 00:41:09;;;;;;;;;;;;;;;26.58;40.98;99130.50;3118819;28;19936;-66
2022/08/19 00:42:41;;;;;;;;;;;;;;;26.56;41.12;99130.66;3113586;28;19933;-66
2022/08/19 00:44:14;;;;;;;;;;;;;;;26.55;41.25;99129.84;3121011;28;20258;-65
2022/08/19 00:45:45;;;;;;;;;;;;;;;26.51;40.90;99123.25;3121080;28;19933;-66
2022/08/19 00:47:17;;;;;;;;;;;;;;;26.48;41.29;99126.25;3121378;28;19936;-66
2022/08/19 00:48:48;;;;;;;;;;;;;;;26.45;41.40;99120.47;3121366;28;19925;-66
2022/08/19 00:50:20;;;;;;;;;;;;;;;26.41;41.29;99120.00;3121214;28;19929;-66
2022/08/19 00:51:57;;;;;;;;;;;;;;;26.37;41.60;99110.72;3121010;28;19926;-65
2022/08/19 00:53:33;;;;;;;;;;;;;;;26.35;41.85;99112.75;3119376;28;19937;-65
2022/08/19 00:55:07;;;;;;;;;;;;;;;26.27;42.79;99113.69;3118710;28;20358;-65
2022/08/19 00:56:39;;;;;;;;;;;;;;;26.17;42.94;99118.50;3118514;28;20020;-65
2022/08/19 00:58:14;;;;;;;;;;;;;;;26.13;42.69;99105.72;3118784;28;20252;-65
2022/08/19 00:59:48;;;;;;;;;;;;;;;26.06;42.60;99111.81;3119923;28;19925;-66
2022/08/19 01:01:20;;;;;;;;;;;;;;;26.05;42.34;99104.78;3119601;28;20273;-65
2022/08/19 01:02:51;;;;;;;;;;;;;;;26.05;43.09;99110.13;3120052;28;19925;-65
2022/08/19 01:04:23;;;;;;;;;;;;;;;26.04;42.87;99107.66;3119933;28;19925;-66
2022/08/19 01:05:55;;;;;;;;;;;;;;;26.02;43.05;99094.50;3119893;28;20033;-65
2022/08/19 01:07:28;;;;;;;;;;;;;;;26.02;42.50;99099.00;3118841;28;19925;-65
2022/08/19 01:09:00;;;;;;;;;;;;;;;26.01;42.76;99110.69;3121721;28;19929;-65
2022/08/19 01:10:34;;;;;;;;;;;;;;;25.99;42.65;99105.53;3123084;28;19936;-65
2022/08/19 01:12:06;;;;;;;;;;;;;;;25.97;42.67;99096.91;3123028;28;20292;-65
2022/08/19 01:13:37;;;;;;;;;;;;;;;25.96;42.52;99099.75;3122841;28;20009;-65
2022/08/19 01:15:11;;;;;;;;;;;;;;;25.95;42.21;99103.44;3123097;28;19929;-65
2022/08/19 01:16:44;;;;;;;;;;;;;;;25.94;42.59;99099.94;3123147;28;19940;-65
2022/08/19 01:18:17;;;;;;;;;;;;;;;25.92;42.98;99099.31;3122822;28;20662;-65
2022/08/19 01:19:49;;;;;;;;;;;;;;;25.92;42.74;99093.97;3122741;28;20304;-66
2022/08/19 01:21:23;;;;;;;;;;;;;;;25.93;42.38;99100.13;3122759;28;19928;-65
2022/08/19 01:22:57;;;;;;;;;;;;;;;25.92;42.74;99109.16;3122975;28;20375;-66
2022/08/19 01:24:30;;;;;;;;;;;;;;;25.92;42.75;99104.63;3122768;28;19947;-65
2022/08/19 01:26:01;;;;;;;;;;;;;;;25.92;42.33;99109.16;3124798;28;20398;-65
2022/08/19 01:27:38;;;;;;;;;;;;;;;25.92;42.57;99111.81;3129314;28;19933;-65
2022/08/19 01:29:10;;;;;;;;;;;;;;;25.91;43.01;99108.31;3122529;28;19925;-65
2022/08/19 01:30:43;;;;;;;;;;;;;;;25.86;43.11;99116.88;3122865;28;20011;-66
2022/08/19 01:32:17;;;;;;;;;;;;;;;25.83;43.69;99117.25;3122913;28;19936;-65
2022/08/19 01:33:49;;;;;;;;;;;;;;;25.79;43.60;99115.94;3121482;28;19929;-65
2022/08/19 01:35:23;;;;;;;;;;;;;;;25.73;44.08;99124.63;3130741;27;19928;-65
2022/08/19 01:36:54;;;;;;;;;;;;;;;25.59;45.03;99112.97;3122846;28;20020;-65
2022/08/19 01:38:28;;;;;;;;;;;;;;;25.47;45.27;99124.25;3122616;28;19926;-65
2022/08/19 01:39:59;;;;;;;;;;;;;;;25.38;45.86;99123.53;3122570;28;19928;-65
2022/08/19 01:41:31;;;;;;;;;;;;;;;25.28;46.00;99126.41;3117752;28;19932;-66
2022/08/19 01:43:04;;;;;;;;;;;;;;;25.27;45.88;99131.94;3118001;28;19952;-65
2022/08/19 01:44:36;;;;;;;;;;;;;;;25.22;46.16;99136.97;3122779;28;19940;-65
2022/08/19 01:46:06;;;;;;;;;;;;;;;25.20;46.43;99137.16;3122881;28;19925;-65
2022/08/19 01:47:38;;;;;;;;;;;;;;;25.16;46.59;99135.84;3122944;28;19929;-65
2022/08/19 01:49:10;;;;;;;;;;;;;;;25.16;46.29;99135.84;3122780;28;19940;-65
2022/08/19 01:50:43;;;;;;;;;;;;;;;25.09;46.81;99138.38;3122834;28;19925;-64
2022/08/19 01:52:15;;;;;;;;;;;;;;;25.00;47.44;99146.63;3123021;28;19932;-65
2022/08/19 01:53:50;;;;;;;;;;;;;;;24.92;47.71;99151.00;3122673;28;19925;-65
2022/08/19 01:55:23;;;;;;;;;;;;;;;24.88;47.61;99154.19;3122399;28;19936;-65
2022/08/19 01:56:57;;;;;;;;;;;;;;;24.86;47.93;99153.53;3122427;28;19980;-64
2022/08/19 01:58:32;;;;;;;;;;;;;;;24.90;46.92;99152.16;3122533;28;19925;-64
2022/08/19 02:00:05;;;;;;;;;;;;;;;24.97;46.50;99150.47;3122644;28;19935;-64
2022/08/19 02:01:36;;;;;;;;;;;;;;;25.03;46.42;99151.59;3122377;28;19925;-64
2022/08/19 02:03:10;;;;;;;;;;;;;;;25.06;46.31;99156.56;3122440;28;19925;-64
2022/08/19 02:04:42;;;;;;;;;;;;;;;25.05;46.87;99158.38;3122771;28;20024;-65
2022/08/19 02:06:14;;;;;;;;;;;;;;;25.05;46.84;99154.88;3187431;27;19954;-64
2022/08/19 02:07:44;;;;;;;;;;;;;;;25.05;46.44;99162.88;3123928;27;19973;-65
2022/08/19 02:09:18;;;;;;;;;;;;;;;25.08;46.40;99162.53;3122697;28;19925;-64
2022/08/19 02:10:50;;;;;;;;;;;;;;;25.08;46.71;99160.72;3118323;28;19925;-64
2022/08/19 02:12:22;;;;;;;;;;;;;;;25.07;46.55;99163.53;3117139;28;20475;-64
2022/08/19 02:13:53;;;;;;;;;;;;;;;25.08;46.07;99157.19;3122346;28;19929;-64
2022/08/19 02:15:25;;;;;;;;;;;;;;;25.07;46.31;99164.38;3122353;28;20388;-65
2022/08/19 02:16:57;;;;;;;;;;;;;;;25.08;46.09;99162.53;3122675;28;19925;-64
2022/08/19 02:18:28;;;;;;;;;;;;;;;25.09;45.84;99173.03;3122491;28;19925;-64
2022/08/19 02:20:00;;;;;;;;;;;;;;;25.11;45.67;99172.81;3122265;28;19929;-64
2022/08/19 02:21:31;;;;;;;;;;;;;;;25.10;46.56;99172.00;3121967;28;19933;-65
2022/08/19 02:23:02;;;;;;;;;;;;;;;25.08;46.50;99175.84;3122517;28;19932;-64
2022/08/19 02:24:35;;;;;;;;;;;;;;;25.06;46.15;99181.38;3122402;28;20321;-64
2022/08/19 02:26:06;;;;;;;;;;;;;;;25.09;45.91;99186.34;3125349;28;20001;-64
2022/08/19 02:27:37;;;;;;;;;;;;;;;25.12;45.82;99182.50;3127871;28;19936;-65
2022/08/19 02:29:09;;;;;;;;;;;;;;;25.14;45.46;99177.84;3122513;28;20349;-65
2022/08/19 02:30:42;;;;;;;;;;;;;;;25.15;45.89;99169.69;3122415;28;19940;-65
2022/08/19 02:32:13;;;;;;;;;;;;;;;25.14;45.81;99169.84;3120479;28;19929;-65
2022/08/19 02:33:44;;;;;;;;;;;;;;;25.13;45.76;99179.66;3110574;28;19933;-65
2022/08/19 02:35:16;;;;;;;;;;;;;;;25.14;46.13;99180.50;3109992;28;19925;-65
2022/08/19 02:36:47;;;;;;;;;;;;;;;25.14;46.23;99178.69;3121948;28;19925;-64
2022/08/19 02:38:27;;;;;;;;;;;;;;;25.16;45.86;99176.66;3122332;28;19936;-64
2022/08/19 02:39:59;;;;;;;;;;;;;;;25.15;45.72;99177.66;3122396;28;19925;-65
2022/08/19 02:41:32;;;;;;;;;;;;;;;25.14;45.92;99186.69;3116979;28;19933;-64
2022/08/19 02:43:05;;;;;;;;;;;;;;;25.13;45.68;99184.16;3117725;28;19937;-64
2022/08/19 02:44:37;;;;;;;;;;;;;;;25.14;45.67;99192.00;3121884;28;20363;-64
2022/08/19 02:46:12;;;;;;;;;;;;;;;25.10;46.01;99190.66;3122043;28;19925;-64
2022/08/19 02:47:43;;;;;;;;;;;;;;;25.12;45.73;99193.16;3122163;28;19940;-64
2022/08/19 02:49:15;;;;;;;;;;;;;;;25.12;46.03;99193.16;3122183;28;19929;-64
2022/08/19 02:50:47;;;;;;;;;;;;;;;25.12;45.83;99190.50;3122073;28;19975;-65
2022/08/19 02:52:18;;;;;;;;;;;;;;;25.13;46.15;99185.00;3122144;28;20602;-65
2022/08/19 02:53:51;;;;;;;;;;;;;;;25.09;46.39;99190.84;3122028;28;19929;-65
2022/08/19 02:55:23;;;;;;;;;;;;;;;25.08;46.29;99191.84;3121646;28;19926;-66
2022/08/19 02:56:54;;;;;;;;;;;;;;;25.07;46.41;99192.84;3121721;28;20291;-66
2022/08/19 02:58:27;;;;;;;;;;;;;;;25.04;47.04;99193.19;3122135;28;19993;-66
2022/08/19 02:59:58;;;;;;;;;;;;;;;24.94;47.26;99196.09;3121773;28;20296;-65
2022/08/19 03:01:31;;;;;;;;;;;;;;;24.93;46.76;99197.09;3122150;28;19933;-65
2022/08/19 03:03:03;;;;;;;;;;;;;;;24.94;46.72;99201.44;3118241;28;20233;-65
2022/08/19 03:04:34;;;;;;;;;;;;;;;24.92;47.32;99200.78;3122283;28;20027;-65
2022/08/19 03:06:07;;;;;;;;;;;;;;;24.90;46.85;99200.09;3121881;28;19940;-65
2022/08/19 03:07:39;;;;;;;;;;;;;;;24.91;46.95;99197.28;3120849;28;19926;-65
2022/08/19 03:09:11;;;;;;;;;;;;;;;24.85;47.31;99198.00;3122088;28;20012;-65
2022/08/19 03:10:46;;;;;;;;;;;;;;;24.85;47.25;99203.31;3118268;28;19926;-65
2022/08/19 03:12:16;;;;;;;;;;;;;;;24.85;47.18;99203.31;3115890;28;19932;-65
2022/08/19 03:13:50;;;;;;;;;;;;;;;24.86;47.43;99196.16;3121889;28;20019;-65
2022/08/19 03:15:21;;;;;;;;;;;;;;;24.87;47.13;99200.47;3121862;28;19986;-65
2022/08/19 03:16:53;;;;;;;;;;;;;;;24.88;47.05;99200.31;3121821;28;20433;-66
2022/08/19 03:18:24;;;;;;;;;;;;;;;24.90;46.89;99202.78;3121881;28;19940;-65
2022/08/19 03:19:55;;;;;;;;;;;;;;;24.91;47.03;99199.13;3121902;28;19925;-65
2022/08/19 03:21:31;;;;;;;;;;;;;;;24.92;46.94;99208.75;3121515;28;19943;-65
2022/08/19 03:23:02;;;;;;;;;;;;;;;24.92;47.28;99209.59;3120228;28;19988;-65
2022/08/19 03:24:33;;;;;;;;;;;;;;;24.91;47.20;99213.25;3121778;28;19936;-65
2022/08/19 03:26:07;;;;;;;;;;;;;;;24.91;46.88;99213.25;3124122;28;19979;-65
2022/08/19 03:27:38;;;;;;;;;;;;;;;24.91;47.10;99210.59;3127466;28;20246;-65
2022/08/19 03:29:11;;;;;;;;;;;;;;;24.90;47.11;99208.91;3121512;28;20015;-65
2022/08/19 03:30:43;;;;;;;;;;;;;;;24.90;47.25;99219.56;3121873;28;20012;-66
2022/08/19 03:32:15;;;;;;;;;;;;;;;24.90;47.11;99221.41;3121521;28;19933;-65
2022/08/19 03:33:47;;;;;;;;;;;;;;;24.90;46.99;99216.09;3121892;28;19936;-65
2022/08/19 03:35:20;;;;;;;;;;;;;;;24.88;47.33;99215.47;3171225;27;19923;-65
2022/08/19 03:36:51;;;;;;;;;;;;;;;24.87;47.23;99216.44;3109633;28;19939;-65
2022/08/19 03:38:23;;;;;;;;;;;;;;;24.84;48.35;99219.47;3120532;28;19926;-65
2022/08/19 03:39:54;;;;;;;;;;;;;;;24.81;48.02;99217.97;3121356;28;19929;-65
2022/08/19 03:41:30;;;;;;;;;;;;;;;24.79;48.16;99217.34;3116942;28;19925;-65
2022/08/19 03:43:01;;;;;;;;;;;;;;;24.80;47.57;99221.66;3116807;28;19925;-65
2022/08/19 03:44:33;;;;;;;;;;;;;;;24.81;47.87;99217.97;3121688;28;19925;-65
2022/08/19 03:46:06;;;;;;;;;;;;;;;24.81;48.00;99227.78;3121316;28;20343;-66
2022/08/19 03:47:38;;;;;;;;;;;;;;;24.83;47.64;99229.28;3121549;28;20004;-65
2022/08/19 03:49:08;;;;;;;;;;;;;;;24.83;47.83;99223.97;3121332;28;19932;-65
2022/08/19 03:50:40;;;;;;;;;;;;;;;24.85;47.76;99221.97;3121684;28;20340;-66
2022/08/19 03:52:11;;;;;;;;;;;;;;;24.87;47.49;99225.25;3121589;28;19925;-66
2022/08/19 03:53:42;;;;;;;;;;;;;;;24.87;47.45;99235.09;3121583;28;19925;-64
2022/08/19 03:55:14;;;;;;;;;;;;;;;24.87;47.45;99233.25;3121018;28;19925;-66
2022/08/19 03:56:48;;;;;;;;;;;;;;;24.89;47.09;99230.41;3121274;28;19933;-64
2022/08/19 03:58:19;;;;;;;;;;;;;;;24.89;47.11;99225.09;3121250;28;19929;-64
2022/08/19 03:59:51;;;;;;;;;;;;;;;24.90;47.24;99229.41;3121395;28;19941;-67
2022/08/19 04:01:23;;;;;;;;;;;;;;;24.92;47.29;99224.75;3121288;28;19925;-64
2022/08/19 04:02:55;;;;;;;;;;;;;;;24.92;47.22;99244.22;3118428;28;19933;-65
2022/08/19 04:04:27;;;;;;;;;;;;;;;24.94;47.37;99233.41;3120526;28;19925;-65
2022/08/19 04:05:58;;;;;;;;;;;;;;;24.94;47.34;99228.91;3121272;28;19925;-64
2022/08/19 04:07:30;;;;;;;;;;;;;;;24.95;47.62;99229.72;3120120;28;19936;-64
2022/08/19 04:09:02;;;;;;;;;;;;;;;24.95;47.26;99230.53;3121129;28;20392;-64
2022/08/19 04:10:36;;;;;;;;;;;;;;;24.95;47.19;99224.38;3118671;28;19926;-64
2022/08/19 04:12:09;;;;;;;;;;;;;;;24.94;47.38;99228.91;3113956;28;19932;-64
2022/08/19 04:13:40;;;;;;;;;;;;;;;24.93;47.60;99237.03;3121367;28;19940;-64
2022/08/19 04:15:12;;;;;;;;;;;;;;;24.91;47.20;99237.22;3121259;28;19925;-64
2022/08/19 04:16:43;;;;;;;;;;;;;;;24.89;47.56;99239.22;3121120;28;19925;-64
2022/08/19 04:18:15;;;;;;;;;;;;;;;24.88;47.59;99244.75;3120439;28;19933;-64
2022/08/19 04:19:46;;;;;;;;;;;;;;;24.88;47.95;99247.41;3121315;28;20038;-64
2022/08/19 04:21:18;;;;;;;;;;;;;;;24.87;48.21;99251.06;3121081;28;19924;-64
2022/08/19 04:22:50;;;;;;;;;;;;;;;24.85;48.20;99245.09;3120995;28;19933;-64
2022/08/19 04:24:22;;;;;;;;;;;;;;;24.85;48.08;99242.44;3121216;28;19926;-64
2022/08/19 04:25:53;;;;;;;;;;;;;;;24.84;47.59;99240.75;3122040;28;20368;-64
2022/08/19 04:27:26;;;;;;;;;;;;;;;24.82;47.88;99235.63;3128431;28;19939;-64
2022/08/19 04:28:57;;;;;;;;;;;;;;;24.80;47.89;99242.13;3120789;28;20020;-64
2022/08/19 04:30:29;;;;;;;;;;;;;;;24.78;47.67;99239.63;3121086;28;20341;-64
2022/08/19 04:32:00;;;;;;;;;;;;;;;24.74;47.42;99236.47;3118859;28;19936;-64
2022/08/19 04:33:31;;;;;;;;;;;;;;;24.73;47.52;99242.00;3121127;28;19925;-65
2022/08/19 04:35:03;;;;;;;;;;;;;;;24.70;47.66;99237.84;3121104;28;19929;-64
2022/08/19 04:36:35;;;;;;;;;;;;;;;24.70;47.61;99242.34;3121136;28;19925;-64
2022/08/19 04:38:07;;;;;;;;;;;;;;;24.71;47.61;99250.16;3121031;28;19936;-64
2022/08/19 04:43:21;;;;;;;;;;;;;;;24.74;47.78;99249.78;3092884;28;20417;-65
2022/08/19 04:44:52;;;;;;;;;;;;;;;24.76;47.74;99252.31;3123105;28;19925;-65
2022/08/19 04:46:23;;;;;;;;;;;;;;;24.78;47.40;99249.44;3122965;28;19951;-65
2022/08/19 04:47:57;;;;;;;;;;;;;;;24.81;47.71;99254.44;3123049;28;19933;-65
2022/08/19 04:49:29;;;;;;;;;;;;;;;24.82;48.00;99251.59;3123153;28;19925;-65
2022/08/19 04:51:01;;;;;;;;;;;;;;;24.80;48.71;99253.59;3123085;28;20368;-65
2022/08/19 04:52:33;;;;;;;;;;;;;;;24.80;48.68;99255.44;3123002;28;19925;-65
2022/08/19 04:54:04;;;;;;;;;;;;;;;24.80;48.78;99252.78;3122828;28;19925;-65
2022/08/19 04:55:39;;;;;;;;;;;;;;;24.82;49.01;99248.94;3123012;28;19948;-65
2022/08/19 04:57:11;;;;;;;;;;;;;;;24.84;48.44;99248.75;3123270;28;19929;-65
2022/08/19 04:58:45;;;;;;;;;;;;;;;24.84;49.18;99248.75;3123064;28;19925;-66
2022/08/19 05:00:16;;;;;;;;;;;;;;;24.85;48.63;99250.44;3122807;28;20357;-64
2022/08/19 05:01:49;;;;;;;;;;;;;;;24.88;48.73;99244.75;3123111;28;19936;-64
2022/08/19 05:03:21;;;;;;;;;;;;;;;24.91;48.18;99247.06;3119025;28;19957;-65
2022/08/19 05:04:58;;;;;;;;;;;;;;;24.94;48.29;99252.03;3122966;28;19926;-65
2022/08/19 05:06:33;;;;;;;;;;;;;;;25.00;47.94;99248.69;3121870;28;19929;-66
2022/08/19 05:08:05;;;;;;;;;;;;;;;25.05;48.07;99251.63;3123248;28;19926;-65
2022/08/19 05:09:37;;;;;;;;;;;;;;;25.09;47.98;99250.28;3123097;28;19979;-66
2022/08/19 05:11:09;;;;;;;;;;;;;;;25.13;47.95;99242.75;3115631;28;19925;-64
2022/08/19 05:12:40;;;;;;;;;;;;;;;25.17;48.07;99246.75;3120014;28;19936;-64
2022/08/19 05:14:14;;;;;;;;;;;;;;;25.21;47.77;99247.25;3122493;28;20000;-64
2022/08/19 05:15:53;;;;;;;;;;;;;;;25.23;47.87;99258.53;3122702;28;19933;-63
2022/08/19 05:17:25;;;;;;;;;;;;;;;25.23;48.45;99256.72;3122686;28;19957;-65
2022/08/19 05:22:38;;;;;;;;;;;;;;;25.31;48.51;99261.97;3123054;28;19935;-64
2022/08/19 05:24:09;;;;;;;;;;;;;;;25.37;47.87;99257.78;3122905;28;19925;-64
2022/08/19 05:25:41;;;;;;;;;;;;;;;25.42;47.85;99252.75;3121775;28;19948;-64
2022/08/19 05:27:13;;;;;;;;;;;;;;;25.47;47.68;99258.38;3131826;28;19950;-64
2022/08/19 05:28:45;;;;;;;;;;;;;;;25.54;47.91;99258.50;3122878;28;20004;-64
2022/08/19 05:30:18;;;;;;;;;;;;;;;25.59;47.71;99256.13;3122435;28;19925;-64
2022/08/19 05:31:50;;;;;;;;;;;;;;;25.65;47.31;99258.06;3122757;28;19936;-64
2022/08/19 05:33:22;;;;;;;;;;;;;;;25.70;46.85;99261.00;3122567;28;20380;-64
2022/08/19 05:34:53;;;;;;;;;;;;;;;25.76;46.77;99262.13;3123031;28;19936;-65
2022/08/19 05:36:24;;;;;;;;;;;;;;;25.81;46.65;99262.44;3122572;28;20005;-65
2022/08/19 05:37:56;;;;;;;;;;;;;;;25.88;46.00;99260.72;3122535;28;19925;-65
2022/08/19 05:39:29;;;;;;;;;;;;;;;26.05;46.05;99269.41;3122419;28;19932;-64
2022/08/19 05:41:01;;;;;;;;;;;;;;;26.87;44.15;99273.84;3121471;28;20392;-64
2022/08/19 05:42:32;;;;;;;;;;;;;;;28.13;41.24;99269.75;3116103;28;19982;-64
2022/08/19 05:44:08;;;;;;;;;;;;;;;28.90;40.18;99267.88;3133733;27;19940;-65
2022/08/19 05:45:42;;;;;;;;;;;;;;;29.12;39.05;99255.19;3122544;28;20274;-65
2022/08/19 05:47:14;;;;;;;;;;;;;;;28.98;39.44;99263.16;3122866;28;19943;-64
2022/08/19 05:48:46;;;;;;;;;;;;;;;28.77;39.71;99264.13;3122462;28;19947;-63
2022/08/19 05:50:18;;;;;;;;;;;;;;;28.63;40.27;99265.06;3122272;28;19925;-63
2022/08/19 05:51:49;;;;;;;;;;;;;;;28.60;40.27;99254.75;3122696;28;19925;-63
2022/08/19 05:53:21;;;;;;;;;;;;;;;28.62;40.11;99257.25;3122499;28;20033;-63
2022/08/19 05:54:54;;;;;;;;;;;;;;;28.59;39.90;99253.13;3121514;28;19926;-63
2022/08/19 05:56:26;;;;;;;;;;;;;;;28.47;40.28;99262.75;3120480;28;20249;-63
2022/08/19 05:57:57;;;;;;;;;;;;;;;28.27;40.00;99263.41;3122298;28;19932;-63
2022/08/19 05:59:29;;;;;;;;;;;;;;;28.12;40.53;99270.75;3122330;28;19925;-65
2022/08/19 06:01:05;;;;;;;;;;;;;;;27.98;40.99;99245.75;3122289;28;19929;-65
2022/08/19 06:02:36;;;;;;;;;;;;;;;28.02;40.76;99264.91;3122192;28;19925;-65
2022/08/19 06:04:07;;;;;;;;;;;;;;;27.98;41.03;99272.50;3119534;28;19932;-65
2022/08/19 06:05:39;;;;;;;;;;;;;;;27.95;41.51;99269.38;3122366;28;20378;-63
2022/08/19 06:07:10;;;;;;;;;;;;;;;27.94;41.33;99273.09;3121216;28;19929;-63
2022/08/19 06:08:42;;;;;;;;;;;;;;;27.95;41.64;99266.69;3122133;28;19952;-63
2022/08/19 06:10:14;;;;;;;;;;;;;;;27.96;41.09;99269.19;3121832;28;19930;-63
2022/08/19 06:11:46;;;;;;;;;;;;;;;27.95;41.46;99274.72;3120762;28;19940;-63
2022/08/19 06:13:19;;;;;;;;;;;;;;;27.94;41.05;99276.59;3121723;28;20016;-63
2022/08/19 06:14:52;;;;;;;;;;;;;;;27.89;41.37;99271.84;3121962;28;19962;-63
2022/08/19 06:16:25;;;;;;;;;;;;;;;27.90;41.52;99275.31;3122192;28;20404;-63
2022/08/19 06:17:57;;;;;;;;;;;;;;;27.92;41.25;99275.13;3121900;28;19979;-63
2022/08/19 06:19:30;;;;;;;;;;;;;;;27.99;41.46;99276.00;3121986;28;20298;-64
2022/08/19 06:21:03;;;;;;;;;;;;;;;28.01;41.07;99280.16;3121855;28;19940;-64
2022/08/19 06:22:38;;;;;;;;;;;;;;;28.04;40.79;99281.59;3122189;28;19933;-64
2022/08/19 06:24:11;;;;;;;;;;;;;;;28.06;40.50;99276.88;3121152;28;19926;-64
2022/08/19 06:25:43;;;;;;;;;;;;;;;28.07;40.79;99279.38;3118995;28;20351;-64
2022/08/19 06:27:15;;;;;;;;;;;;;;;28.05;40.78;99276.06;3131161;28;19925;-64
2022/08/19 06:28:47;;;;;;;;;;;;;;;28.10;40.63;99275.44;3122078;28;19925;-64
2022/08/19 06:30:18;;;;;;;;;;;;;;;28.17;40.76;99275.53;3121816;28;20029;-63
2022/08/19 06:31:53;;;;;;;;;;;;;;;28.27;40.91;99274.13;3121084;28;19926;-64
2022/08/19 06:33:25;;;;;;;;;;;;;;;28.39;40.25;99279.75;3121845;28;19936;-63
2022/08/19 06:34:56;;;;;;;;;;;;;;;28.49;40.28;99282.13;3122058;28;19933;-63
2022/08/19 06:36:31;;;;;;;;;;;;;;;28.60;40.44;99283.41;3122017;28;19925;-64
2022/08/19 06:38:03;;;;;;;;;;;;;;;28.68;40.02;99281.38;3121700;28;19937;-64
2022/08/19 06:39:37;;;;;;;;;;;;;;;28.79;39.93;99286.19;3122110;28;19933;-63
2022/08/19 06:41:09;;;;;;;;;;;;;;;28.91;39.88;99289.13;3119422;28;19925;-63
2022/08/19 06:42:40;;;;;;;;;;;;;;;29.02;39.95;99290.44;3113957;28;20293;-63
2022/08/19 06:44:12;;;;;;;;;;;;;;;29.11;39.27;99288.41;3121847;28;19933;-63
2022/08/19 06:45:44;;;;;;;;;;;;;;;29.15;38.87;99285.09;3122069;28;19925;-63
2022/08/19 06:47:19;;;;;;;;;;;;;;;29.23;38.53;99276.06;3121896;28;19929;-63
2022/08/19 06:48:53;;;;;;;;;;;;;;;29.29;38.49;99285.16;3121700;28;20399;-66
2022/08/19 06:50:25;;;;;;;;;;;;;;;29.32;38.17;99285.56;3121851;28;20012;-64
2022/08/19 06:51:58;;;;;;;;;;;;;;;29.36;38.57;99291.34;3121975;28;19929;-64
2022/08/19 06:53:29;;;;;;;;;;;;;;;29.38;38.22;99291.97;3121738;28;19925;-64
2022/08/19 06:55:00;;;;;;;;;;;;;;;29.41;38.30;99294.25;3121494;28;19929;-64
2022/08/19 06:56:34;;;;;;;;;;;;;;;29.43;38.14;99284.13;3121745;28;20005;-64
2022/08/19 06:58:06;;;;;;;;;;;;;;;29.47;38.10;99290.75;3121909;28;19972;-64
2022/08/19 06:59:37;;;;;;;;;;;;;;;29.51;38.13;99285.78;3121899;28;19925;-64
2022/08/19 07:01:08;;;;;;;;;;;;;;;29.55;38.09;99287.03;3121636;28;19925;-64
2022/08/19 07:02:41;;;;;;;;;;;;;;;29.57;37.53;99280.44;3121691;28;19943;-64
2022/08/19 07:04:13;;;;;;;;;;;;;;;29.51;37.76;99283.09;3121742;28;19925;-64
2022/08/19 07:05:44;;;;;;;;;;;;;;;29.43;37.85;99282.28;3121403;28;19999;-64
2022/08/19 07:07:16;;;;;;;;;;;;;;;29.42;37.87;99274.44;3119288;28;19940;-64
2022/08/19 07:08:48;;;;;;;;;;;;;;;29.49;38.35;99280.66;3121635;28;19925;-66
2022/08/19 07:10:20;;;;;;;;;;;;;;;29.57;38.08;99276.91;3120987;28;19942;-63
2022/08/19 07:11:53;;;;;;;;;;;;;;;29.64;38.10;99270.56;3112089;28;19933;-63
2022/08/19 07:13:25;;;;;;;;;;;;;;;29.74;38.15;99272.84;3120818;28;20288;-64
2022/08/19 07:14:57;;;;;;;;;;;;;;;29.83;37.96;99271.59;3122002;28;20002;-63
2022/08/19 07:16:28;;;;;;;;;;;;;;;29.92;37.66;99275.72;3121796;28;19925;-64
2022/08/19 07:18:02;;;;;;;;;;;;;;;30.04;37.75;99269.72;3121472;28;19956;-64
2022/08/19 07:19:34;;;;;;;;;;;;;;;30.14;37.62;99273.66;3121384;28;19925;-64
2022/08/19 07:21:06;;;;;;;;;;;;;;;30.25;36.92;99266.00;3121646;28;19940;-63
2022/08/19 07:22:38;;;;;;;;;;;;;;;30.35;37.08;99269.09;3117868;28;19932;-64
2022/08/19 07:24:12;;;;;;;;;;;;;;;30.42;36.59;99261.81;3121535;28;19935;-64
2022/08/19 07:25:43;;;;;;;;;;;;;;;30.49;36.18;99267.19;3121138;28;19933;-64
2022/08/19 07:27:15;;;;;;;;;;;;;;;30.51;36.29;99268.63;3130682;28;19933;-64
2022/08/19 07:28:48;;;;;;;;;;;;;;;30.58;35.89;99268.59;3121720;28;19936;-64
2022/08/19 07:30:19;;;;;;;;;;;;;;;30.67;35.87;99269.19;3121387;27;20351;-64
2022/08/19 07:31:51;;;;;;;;;;;;;;;30.72;35.36;99272.06;3120485;28;19936;-64
2022/08/19 07:33:26;;;;;;;;;;;;;;;30.73;34.84;99266.47;3121293;28;19985;-64
2022/08/19 07:35:00;;;;;;;;;;;;;;;30.79;34.92;99270.19;3121518;28;19961;-64
2022/08/19 07:36:32;;;;;;;;;;;;;;;30.89;35.05;99270.56;3121502;28;19935;-64
2022/08/19 07:38:03;;;;;;;;;;;;;;;30.98;35.05;99266.59;3125089;27;19978;-64
2022/08/19 07:39:36;;;;;;;;;;;;;;;31.08;34.66;99270.69;3131244;27;19925;-64
2022/08/19 07:41:08;;;;;;;;;;;;;;;31.17;34.48;99259.44;3119036;28;20364;-64
2022/08/19 07:42:39;;;;;;;;;;;;;;;31.27;34.32;99254.44;3113372;28;19925;-64
2022/08/19 07:44:14;;;;;;;;;;;;;;;31.38;34.49;99255.59;3120815;28;21289;-64
2022/08/19 07:45:46;;;;;;;;;;;;;;;31.49;33.99;99260.28;3121363;28;19945;-64
2022/08/19 07:47:18;;;;;;;;;;;;;;;31.62;33.91;99253.16;3121363;28;19986;-64
2022/08/19 07:48:52;;;;;;;;;;;;;;;31.71;33.56;99260.75;3121440;28;19932;-64
2022/08/19 07:50:23;;;;;;;;;;;;;;;31.82;33.42;99259.19;3121680;28;20031;-64
2022/08/19 07:51:56;;;;;;;;;;;;;;;31.90;33.16;99248.19;3121196;28;20288;-64
2022/08/19 07:53:28;;;;;;;;;;;;;;;32.03;33.24;99249.09;3121355;28;19925;-64
2022/08/19 07:55:03;;;;;;;;;;;;;;;32.16;33.49;99262.44;3121228;28;19929;-64
2022/08/19 07:56:35;;;;;;;;;;;;;;;32.30;33.06;99255.03;3121498;28;20058;-64
2022/08/19 07:58:06;;;;;;;;;;;;;;;32.47;32.71;99263.38;3121147;28;19936;-65
2022/08/19 07:59:38;;;;;;;;;;;;;;;32.56;32.41;99249.38;3121045;28;19937;-64
2022/08/19 08:01:11;;;;;;;;;;;;;;;32.71;32.75;99254.38;3121114;28;19932;-64
2022/08/19 08:02:43;;;;;;;;;;;;;;;32.85;32.62;99246.94;3121167;28;19948;-64
2022/08/19 08:09:47;;;;;;;;;;;;;;;33.12;30.33;99255.53;3121329;28;19925;-66
2022/08/19 08:11:20;;;;;;;;;;;;;;;33.14;30.49;99261.53;3112677;28;20335;-64
2022/08/19 08:12:52;;;;;;;;;;;;;;;33.25;30.38;99257.22;3119475;28;20377;-64
2022/08/19 08:14:24;;;;;;;;;;;;;;;33.38;30.58;99251.63;3120870;28;19925;-64